Touchet, Washington
Current Conditions -  °F | °C
As of 12:53 AM on Monday 20 Oct 2014 (Local Time) from KALW Reporting Station
Haze Haze  
Wind Chill: 50°   Ceiling: Unl
Heat Index: 50°   Visibility: 6mi
Dew Point: 47°   Wind: 5mph
Humidity: 89%   Direction: 110°ESE
Pressure: 29.72"   Gusts: NA
Location:  46.04°N, 118.67°W
Report Text: KALW 200753Z AUTO 11004KT 6SM BR CLR 10/08 A2972 RMK AO2 SLP064 T01000083 402000094
Loading
Personal Weather Stations






























Interactive Weather Map
Tropical Storm Tracking
New forecast layout! Learn more

10-Day Weather Forecast

Advertisements
Track Severe Weather on mobile